Time;durP1;ratioP1;P1;durP2;ratioP2;P2;SDS_P1;SDS_P2;PMS_P1;PMS_P2;Temp;Humidity;BMP_temperature;BMP_pressure;BME280_temperature;BME280_humidity;BME280_pressure;Samples;Min_cycle;Max_cycle;Signal;HPM_P1;HPM_P2
2022/10/06 00:01:51;;;;;;;1.53;1.43;;;12.30;85.50;;;;;;5066178;23;20173;-70
2022/10/06 00:03:52;;;;;;;1.63;1.40;;;12.40;85.40;;;;;;5040966;23;20191;-70
2022/10/06 00:05:59;;;;;;;2.47;1.53;;;12.40;85.60;;;;;;5066933;23;20164;-70
2022/10/06 00:08:01;;;;;;;2.77;1.40;;;12.30;85.90;;;;;;5066844;23;20245;-70
2022/10/06 00:10:03;;;;;;;2.30;1.20;;;12.30;85.90;;;;;;5067169;23;20278;-70
2022/10/06 00:12:04;;;;;;;2.47;1.20;;;12.30;86.10;;;;;;5065943;23;20162;-70
2022/10/06 00:14:05;;;;;;;1.77;1.30;;;12.30;86.90;;;;;;5066986;23;20177;-70
2022/10/06 00:16:20;;;;;;;2.73;1.40;;;12.30;86.80;;;;;;5041079;23;20253;-70
2022/10/06 00:18:20;;;;;;;4.80;1.60;;;12.30;86.80;;;;;;5066780;23;20159;-71
2022/10/06 00:20:22;;;;;;;2.77;1.30;;;12.20;87.20;;;;;;5066368;23;20165;-70
2022/10/06 00:22:23;;;;;;;1.40;1.20;;;12.20;89.00;;;;;;5066789;23;20169;-70
2022/10/06 00:24:23;;;;;;;2.13;1.40;;;12.10;90.00;;;;;;5067379;23;20186;-70
2022/10/06 00:26:24;;;;;;;4.03;1.70;;;12.10;90.00;;;;;;5067413;23;20628;-70
2022/10/06 00:28:25;;;;;;;2.40;1.73;;;12.00;90.20;;;;;;5066639;23;20213;-70
2022/10/06 00:30:27;;;;;;;4.23;1.30;;;12.00;90.70;;;;;;5066092;23;20169;-70
2022/10/06 00:32:28;;;;;;;1.87;1.30;;;11.90;90.80;;;;;;5066582;23;20173;-70
2022/10/06 00:34:28;;;;;;;1.43;1.20;;;11.80;91.20;;;;;;5066450;23;20257;-70
2022/10/06 00:36:29;;;;;;;4.73;1.73;;;11.80;91.70;;;;;;5066784;23;20162;-70
2022/10/06 00:38:29;;;;;;;3.57;1.60;;;11.80;92.00;;;;;;5066673;23;20494;-70
2022/10/06 00:40:31;;;;;;;1.97;1.50;;;11.90;91.70;;;;;;5065814;23;20227;-70
2022/10/06 00:42:32;;;;;;;2.77;1.47;;;11.90;91.40;;;;;;5066792;23;20668;-70
2022/10/06 00:44:32;;;;;;;4.10;1.40;;;11.80;91.80;;;;;;5066701;23;20273;-70
2022/10/06 00:46:43;;;;;;;3.87;1.37;;;11.80;91.80;;;;;;5066425;23;20624;-70
2022/10/06 00:48:47;;;;;;;2.80;1.40;;;11.80;91.80;;;;;;5066700;23;20167;-70
2022/10/06 00:50:48;;;;;;;1.57;1.10;;;11.80;91.80;;;;;;5066028;23;20169;-70
2022/10/06 00:52:49;;;;;;;2.10;1.57;;;11.70;92.90;;;;;;5066370;23;20177;-70
2022/10/06 00:54:50;;;;;;;2.77;1.40;;;11.60;92.80;;;;;;5066600;23;20747;-71
2022/10/06 00:56:51;;;;;;;3.70;1.60;;;11.60;93.20;;;;;;5066685;23;20265;-71
2022/10/06 00:58:52;;;;;;;4.47;1.57;;;11.30;93.50;;;;;;5066335;23;20519;-71
2022/10/06 01:00:54;;;;;;;2.87;1.57;;;11.20;93.90;;;;;;5065769;23;20208;-71
2022/10/06 01:03:03;;;;;;;1.60;1.30;;;11.10;94.50;;;;;;5066520;23;20169;-71
2022/10/06 01:05:06;;;;;;;2.87;1.50;;;11.00;95.60;;;;;;5066554;23;20193;-71
2022/10/06 01:07:07;;;;;;;5.37;1.80;;;11.00;95.50;;;;;;5066155;23;20261;-71
2022/10/06 01:09:07;;;;;;;4.30;1.87;;;10.90;95.90;;;;;;5040368;23;20227;-71
2022/10/06 01:11:13;;;;;;;2.97;1.73;;;11.00;95.90;;;;;;5065538;23;20495;-70
2022/10/06 01:13:16;;;;;;;3.33;2.10;;;10.90;96.00;;;;;;5066402;23;20158;-71
2022/10/06 01:15:18;;;;;;;7.30;1.90;;;10.80;96.10;;;;;;5066480;23;20163;-71
2022/10/06 01:17:33;;;;;;;3.70;1.80;;;10.90;96.40;;;;;;5066558;23;20166;-70
2022/10/06 01:19:49;;;;;;;3.30;1.80;;;10.80;96.50;;;;;;5066045;23;20157;-70
2022/10/06 01:21:52;;;;;;;5.37;2.40;;;10.80;96.70;;;;;;5066108;23;20165;-71
2022/10/06 01:23:53;;;;;;;5.63;1.93;;;10.70;97.10;;;;;;5066266;23;20186;-70
2022/10/06 01:25:54;;;;;;;3.77;1.70;;;10.70;96.90;;;;;;5066215;23;20248;-70
2022/10/06 01:27:56;;;;;;;2.93;1.77;;;10.70;97.40;;;;;;5066194;23;20198;-70
2022/10/06 01:29:57;;;;;;;2.97;1.93;;;10.70;97.70;;;;;;5066352;23;20186;-70
2022/10/06 01:31:58;;;;;;;4.33;2.60;;;10.70;98.00;;;;;;5065489;23;20168;-70
2022/10/06 01:33:59;;;;;;;4.27;2.17;;;10.60;98.00;;;;;;5066591;23;20192;-71
2022/10/06 01:35:59;;;;;;;4.27;2.10;;;10.50;98.10;;;;;;5066158;23;20162;-70
2022/10/06 01:38:00;;;;;;;3.73;1.70;;;10.40;98.00;;;;;;5066237;23;20166;-71
2022/10/06 01:40:00;;;;;;;3.07;1.87;;;10.40;98.30;;;;;;5066364;23;20224;-70
2022/10/06 01:42:01;;;;;;;3.27;1.90;;;10.30;98.60;;;;;;5065322;23;20175;-71
2022/10/06 01:44:02;;;;;;;2.93;1.87;;;10.20;98.80;;;;;;5066214;23;20189;-70
2022/10/06 01:46:02;;;;;;;4.37;2.07;;;10.10;99.30;;;;;;5066487;23;20165;-70
2022/10/06 01:48:03;;;;;;;3.50;1.67;;;10.20;99.90;;;;;;5066329;23;20196;-71
2022/10/06 01:50:06;;;;;;;2.37;1.63;;;10.30;99.90;;;;;;5066247;23;20165;-71
2022/10/06 01:52:06;;;;;;;4.43;1.63;;;10.50;99.70;;;;;;5065339;23;20172;-71
2022/10/06 01:54:07;;;;;;;3.93;1.70;;;10.60;99.60;;;;;;5066752;23;20175;-71
2022/10/06 01:56:07;;;;;;;2.70;1.93;;;10.70;99.20;;;;;;5066726;23;20197;-70
2022/10/06 01:58:09;;;;;;;1.90;1.43;;;10.80;98.90;;;;;;5066545;23;20165;-70
2022/10/06 02:00:11;;;;;;;3.47;1.70;;;10.90;98.30;;;;;;5040035;23;20170;-69
2022/10/06 02:02:11;;;;;;;2.53;1.50;;;10.90;98.40;;;;;;5066066;23;20165;-70
2022/10/06 02:04:12;;;;;;;3.73;1.67;;;10.90;98.30;;;;;;5066188;23;20725;-70
2022/10/06 02:06:12;;;;;;;1.87;1.50;;;10.90;98.20;;;;;;5066609;23;20680;-70
2022/10/06 02:08:13;;;;;;;5.10;2.00;;;11.00;98.30;;;;;;5066219;23;20190;-70
2022/10/06 02:10:14;;;;;;;1.50;1.40;;;11.10;97.90;;;;;;5065539;23;20162;-70
2022/10/06 02:12:16;;;;;;;3.47;1.50;;;11.20;97.60;;;;;;5065924;23;20163;-70
2022/10/06 02:14:17;;;;;;;3.17;1.60;;;11.20;97.40;;;;;;5062307;23;20877;-70
2022/10/06 02:16:18;;;;;;;3.87;1.70;;;11.20;97.30;;;;;;5065999;23;20249;-70
2022/10/06 02:18:18;;;;;;;1.87;1.63;;;11.20;97.20;;;;;;5065940;23;20296;-70
2022/10/06 02:20:19;;;;;;;2.20;1.60;;;11.20;97.10;;;;;;5065598;23;20525;-70
2022/10/06 02:22:19;;;;;;;3.00;1.63;;;11.30;97.00;;;;;;5066325;23;20821;-70
2022/10/06 02:24:21;;;;;;;5.23;1.70;;;11.30;97.00;;;;;;5065963;23;20178;-70
2022/10/06 02:26:21;;;;;;;2.23;1.53;;;11.30;96.90;;;;;;5066004;23;20169;-71
2022/10/06 02:28:22;;;;;;;3.47;1.60;;;11.30;96.90;;;;;;5066061;23;20245;-70
2022/10/06 02:30:22;;;;;;;2.97;1.80;;;11.30;96.90;;;;;;5064726;23;20166;-70
2022/10/06 02:32:23;;;;;;;2.77;1.60;;;11.30;97.00;;;;;;5066922;23;20162;-70
2022/10/06 02:34:24;;;;;;;5.07;2.00;;;11.40;96.80;;;;;;5067739;23;20493;-70
2022/10/06 02:36:24;;;;;;;5.17;1.60;;;11.40;96.70;;;;;;5067927;23;20496;-70
2022/10/06 02:38:25;;;;;;;3.17;1.60;;;11.40;96.80;;;;;;5067945;23;20829;-70
2022/10/06 02:40:26;;;;;;;5.87;1.60;;;11.40;96.60;;;;;;5066973;23;20170;-70
2022/10/06 02:42:26;;;;;;;2.47;1.50;;;11.30;96.80;;;;;;5067776;23;20635;-70
2022/10/06 02:44:27;;;;;;;3.90;1.70;;;11.30;96.70;;;;;;5067642;23;20181;-70
2022/10/06 02:46:27;;;;;;;4.63;1.83;;;11.30;96.80;;;;;;5067752;23;20166;-70
2022/10/06 02:48:29;;;;;;;2.33;1.67;;;11.30;97.10;;;;;;5042073;23;20198;-70
2022/10/06 02:50:30;;;;;;;3.27;1.50;;;11.40;97.30;;;;;;5067260;23;20177;-70
2022/10/06 02:52:32;;;;;;;4.33;1.80;;;11.40;97.10;;;;;;5067875;23;20185;-70
2022/10/06 02:54:34;;;;;;;6.23;2.13;;;11.40;96.90;;;;;;5067435;23;20249;-70
2022/10/06 02:56:36;;;;;;;1.57;1.43;;;11.50;96.80;;;;;;5067436;23;20164;-70
2022/10/06 02:58:41;;;;;;;3.30;1.97;;;11.40;96.90;;;;;;5067453;23;20158;-70
2022/10/06 03:00:42;;;;;;;4.30;1.83;;;11.30;97.20;;;;;;5066930;23;20166;-70
2022/10/06 03:02:42;;;;;;;2.43;1.70;;;11.20;97.40;;;;;;5067292;23;20166;-71
2022/10/06 03:04:43;;;;;;;2.37;1.50;;;11.20;97.40;;;;;;5067336;23;20182;-70
2022/10/06 03:06:44;;;;;;;3.07;2.10;;;11.20;97.60;;;;;;5067080;23;20204;-70
2022/10/06 03:08:44;;;;;;;5.27;1.80;;;11.10;97.80;;;;;;5067507;23;20190;-71
2022/10/06 03:10:45;;;;;;;2.57;1.80;;;11.10;97.80;;;;;;5066677;23;20162;-70
2022/10/06 03:12:45;;;;;;;2.40;1.87;;;11.10;97.80;;;;;;5067126;23;20159;-71
2022/10/06 03:14:46;;;;;;;2.30;2.00;;;11.10;98.10;;;;;;5067541;23;20180;-71
2022/10/06 03:16:46;;;;;;;2.53;1.80;;;11.10;98.10;;;;;;5067303;23;20189;-70
2022/10/06 03:18:48;;;;;;;3.73;1.40;;;11.10;98.40;;;;;;5067280;23;20167;-71
2022/10/06 03:20:49;;;;;;;3.30;1.80;;;11.20;98.50;;;;;;5066879;23;20261;-70
2022/10/06 03:22:53;;;;;;;5.33;2.00;;;11.20;98.40;;;;;;5067491;23;20816;-70
2022/10/06 03:24:53;;;;;;;2.47;2.03;;;11.30;98.40;;;;;;5067338;23;20181;-70
2022/10/06 03:26:54;;;;;;;3.80;1.90;;;11.10;97.90;;;;;;5067024;23;20162;-70
2022/10/06 03:28:55;;;;;;;3.27;1.90;;;10.80;98.30;;;;;;5066700;23;20163;-71
2022/10/06 03:31:01;;;;;;;2.40;1.80;;;10.50;99.10;;;;;;5040540;23;20226;-70
2022/10/06 03:33:01;;;;;;;4.73;2.00;;;10.50;99.60;;;;;;5067502;23;20227;-70
2022/10/06 03:35:02;;;;;;;2.40;2.13;;;10.40;99.70;;;;;;5067489;23;20182;-71
2022/10/06 03:37:03;;;;;;;2.27;1.90;;;10.40;99.90;;;;;;5067331;23;20623;-71
2022/10/06 03:39:04;;;;;;;1.97;1.67;;;10.30;99.90;;;;;;5067030;23;20158;-70
2022/10/06 03:41:08;;;;;;;5.90;2.10;;;10.30;99.90;;;;;;5066484;23;20166;-70
2022/10/06 03:43:09;;;;;;;4.93;1.87;;;10.30;99.90;;;;;;5066770;23;20164;-70
2022/10/06 03:45:09;;;;;;;4.60;1.80;;;10.30;99.90;;;;;;5067461;23;20165;-70
2022/10/06 03:47:10;;;;;;;2.77;1.80;;;10.30;99.90;;;;;;5067006;23;20205;-70
2022/10/06 03:49:10;;;;;;;2.93;1.87;;;10.30;99.90;;;;;;5066973;23;20158;-70
2022/10/06 03:51:17;;;;;;;4.20;2.00;;;10.30;99.90;;;;;;5066092;23;20200;-70
2022/10/06 03:53:18;;;;;;;5.87;1.93;;;10.20;99.90;;;;;;5067018;23;20158;-70
2022/10/06 03:55:18;;;;;;;4.00;1.90;;;10.20;99.90;;;;;;5067118;23;20155;-70
2022/10/06 03:57:19;;;;;;;4.57;1.93;;;10.20;99.90;;;;;;5066976;23;20171;-70
2022/10/06 03:59:19;;;;;;;4.43;2.20;;;10.20;99.90;;;;;;5066994;23;20162;-70
2022/10/06 04:01:26;;;;;;;5.60;2.07;;;10.20;99.90;;;;;;5065938;23;20163;-70
2022/10/06 04:03:27;;;;;;;3.43;2.07;;;10.10;99.90;;;;;;5066905;23;20233;-70
2022/10/06 04:05:27;;;;;;;4.13;1.93;;;10.00;99.90;;;;;;5067179;23;20639;-70
2022/10/06 04:07:28;;;;;;;4.10;2.20;;;9.90;99.90;;;;;;5066521;23;20210;-71
2022/10/06 04:09:28;;;;;;;3.80;2.10;;;9.80;99.90;;;;;;5066934;23;20221;-71
2022/10/06 04:11:32;;;;;;;5.10;2.67;;;9.70;99.90;;;;;;5065742;23;20572;-70
2022/10/06 04:13:33;;;;;;;6.50;2.30;;;9.60;99.90;;;;;;5066671;23;20531;-70
2022/10/06 04:15:33;;;;;;;6.23;2.47;;;9.60;99.90;;;;;;5066526;23;20160;-70
2022/10/06 04:17:34;;;;;;;3.57;2.87;;;9.50;99.90;;;;;;5066302;23;20169;-71
2022/10/06 04:19:34;;;;;;;12.87;7.83;;;9.50;99.90;;;;;;5066782;23;20158;-70
2022/10/06 04:21:36;;;;;;;6.67;4.20;;;9.50;99.90;;;;;;5065785;23;20220;-71
2022/10/06 04:23:37;;;;;;;9.07;3.77;;;9.50;99.90;;;;;;5066909;23;20193;-70
2022/10/06 04:25:38;;;;;;;5.27;3.50;;;9.60;99.90;;;;;;5066228;23;20166;-70
2022/10/06 04:27:38;;;;;;;4.10;2.73;;;9.50;99.90;;;;;;5066391;23;20511;-71
2022/10/06 04:29:39;;;;;;;6.53;3.47;;;9.50;99.90;;;;;;5066489;23;20167;-71
2022/10/06 04:31:41;;;;;;;5.17;2.80;;;9.60;99.90;;;;;;5065660;23;20162;-71
2022/10/06 04:33:44;;;;;;;3.70;2.13;;;9.60;99.90;;;;;;5066512;23;20190;-71
2022/10/06 04:35:44;;;;;;;6.63;2.30;;;9.60;99.90;;;;;;5066816;23;20161;-71
2022/10/06 04:37:45;;;;;;;3.43;2.40;;;9.60;99.90;;;;;;5066384;23;20147;-71
2022/10/06 04:39:46;;;;;;;5.37;3.10;;;9.50;99.90;;;;;;5066707;23;20555;-70
2022/10/06 04:41:46;;;;;;;5.53;2.63;;;9.50;99.90;;;;;;5065699;23;20195;-70
2022/10/06 04:43:48;;;;;;;5.23;2.60;;;9.50;99.90;;;;;;5066381;23;20197;-70
2022/10/06 04:45:56;;;;;;;4.80;2.53;;;9.50;99.90;;;;;;5040828;23;20277;-70
2022/10/06 04:47:57;;;;;;;3.60;2.53;;;9.50;99.90;;;;;;5066687;23;20199;-70
2022/10/06 04:49:57;;;;;;;5.47;2.87;;;9.40;99.90;;;;;;5040540;23;20620;-70
2022/10/06 04:51:58;;;;;;;3.73;2.70;;;9.30;99.90;;;;;;5039654;23;20241;-70
2022/10/06 04:53:59;;;;;;;7.27;3.20;;;9.30;99.90;;;;;;5065991;23;20192;-72
2022/10/06 04:56:03;;;;;;;8.83;3.90;;;9.20;99.90;;;;;;5066713;23;20219;-71
2022/10/06 04:58:03;;;;;;;4.97;2.63;;;9.20;99.90;;;;;;5066211;23;20162;-71
2022/10/06 05:00:24;;;;;;;5.23;2.40;;;9.20;99.90;;;;;;5066374;23;20506;-71
2022/10/06 05:02:24;;;;;;;4.67;2.70;;;9.10;99.90;;;;;;5066211;23;20166;-71
2022/10/06 05:04:25;;;;;;;4.33;2.70;;;9.10;99.90;;;;;;5040442;23;20225;-71
2022/10/06 05:06:30;;;;;;;6.73;2.87;;;9.10;99.90;;;;;;5066162;23;20161;-71
2022/10/06 05:08:31;;;;;;;4.67;2.73;;;9.20;99.90;;;;;;5066245;23;20220;-71
2022/10/06 05:10:32;;;;;;;3.83;2.50;;;9.20;99.90;;;;;;5065820;23;20161;-71
2022/10/06 05:12:32;;;;;;;3.40;2.90;;;9.10;99.90;;;;;;5066431;23;20168;-71
2022/10/06 05:14:33;;;;;;;5.50;3.00;;;9.10;99.90;;;;;;5066180;23;20192;-71
2022/10/06 05:16:36;;;;;;;4.13;2.97;;;9.20;99.90;;;;;;5066390;23;20176;-71
2022/10/06 05:18:37;;;;;;;4.13;3.10;;;9.10;99.90;;;;;;5066321;23;20168;-72
2022/10/06 05:20:38;;;;;;;5.53;3.53;;;9.10;99.90;;;;;;5065338;23;20192;-71
2022/10/06 05:22:38;;;;;;;3.60;2.17;;;9.00;99.90;;;;;;5066391;23;20161;-70
2022/10/06 05:24:39;;;;;;;4.10;2.67;;;8.90;99.90;;;;;;5066134;23;20182;-69
2022/10/06 05:26:40;;;;;;;3.60;2.83;;;8.90;99.90;;;;;;5065974;23;20595;-70
2022/10/06 05:28:41;;;;;;;5.37;2.90;;;8.90;99.90;;;;;;5066277;23;20212;-69
2022/10/06 05:30:41;;;;;;;5.90;2.60;;;8.90;99.90;;;;;;5065450;23;20161;-69
2022/10/06 05:32:45;;;;;;;5.03;2.57;;;8.80;99.90;;;;;;5065985;23;20183;-69
2022/10/06 05:34:45;;;;;;;3.23;2.87;;;8.80;99.90;;;;;;5066344;23;21260;-69
2022/10/06 05:36:46;;;;;;;3.47;2.37;;;8.70;99.90;;;;;;5065998;23;20193;-70
2022/10/06 05:38:47;;;;;;;4.53;2.67;;;8.80;99.90;;;;;;5066282;23;20158;-70
2022/10/06 05:40:48;;;;;;;4.80;2.67;;;8.70;99.90;;;;;;5065506;23;20231;-69
2022/10/06 05:42:48;;;;;;;3.60;2.40;;;8.70;99.90;;;;;;5065932;23;20165;-69
2022/10/06 05:44:49;;;;;;;4.33;2.80;;;8.60;99.90;;;;;;5066216;23;20181;-69
2022/10/06 05:46:49;;;;;;;6.77;3.40;;;8.70;99.90;;;;;;5066014;23;20544;-69
2022/10/06 05:48:54;;;;;;;5.50;2.63;;;8.70;99.90;;;;;;5066211;23;20154;-69
2022/10/06 05:51:13;;;;;;;4.30;2.80;;;8.90;99.90;;;;;;5039814;23;20584;-69
2022/10/06 05:53:14;;;;;;;7.23;2.93;;;9.00;99.90;;;;;;5039971;23;20176;-69
2022/10/06 05:55:15;;;;;;;4.00;2.80;;;9.20;99.90;;;;;;5066157;23;20565;-69
2022/10/06 05:57:15;;;;;;;5.47;2.60;;;9.30;99.90;;;;;;5066259;23;20159;-70
2022/10/06 05:59:16;;;;;;;4.03;2.87;;;9.40;99.90;;;;;;5066115;23;20167;-69
2022/10/06 06:01:23;;;;;;;5.13;2.70;;;9.60;99.90;;;;;;5065651;23;20256;-70
2022/10/06 06:03:23;;;;;;;5.00;2.93;;;9.70;99.90;;;;;;5066238;23;20168;-69
2022/10/06 06:05:24;;;;;;;5.67;2.83;;;9.80;99.90;;;;;;5066392;23;20166;-69
2022/10/06 06:07:25;;;;;;;4.80;2.40;;;10.00;99.90;;;;;;5067487;23;20661;-70
2022/10/06 06:09:27;;;;;;;6.80;2.90;;;10.00;99.90;;;;;;5067968;23;20193;-70
2022/10/06 06:11:30;;;;;;;9.50;3.20;;;10.10;99.90;;;;;;5066988;23;20611;-70
2022/10/06 06:13:31;;;;;;;7.17;3.03;;;10.20;99.90;;;;;;5067584;23;20260;-69
2022/10/06 06:17:50;;;;;;;6.13;3.80;;;10.20;99.90;;;;;;5067616;23;20198;-69
2022/10/06 06:19:51;;;;;;;7.07;4.27;;;10.30;99.90;;;;;;5067670;23;20690;-69
2022/10/06 06:21:51;;;;;;;9.73;3.90;;;10.30;99.90;;;;;;5041143;23;20171;-69
2022/10/06 06:23:53;;;;;;;11.93;3.67;;;10.40;99.90;;;;;;5067715;23;20516;-69
2022/10/06 06:26:02;;;;;;;5.13;2.93;;;10.50;99.90;;;;;;5067283;23;20161;-70
2022/10/06 06:28:04;;;;;;;3.43;2.80;;;10.70;99.90;;;;;;5067286;23;20213;-70
2022/10/06 06:30:05;;;;;;;4.93;3.03;;;10.70;99.90;;;;;;5067532;23;20229;-70
2022/10/06 06:32:08;;;;;;;3.47;2.47;;;10.90;99.90;;;;;;5066701;23;20163;-70
2022/10/06 06:34:10;;;;;;;4.83;2.57;;;11.00;99.90;;;;;;5041792;23;20245;-69
2022/10/06 06:36:17;;;;;;;5.10;3.00;;;11.10;99.90;;;;;;5043155;23;20166;-70
2022/10/06 06:38:17;;;;;;;5.47;2.93;;;11.30;99.90;;;;;;5043470;23;20163;-69
2022/10/06 06:40:18;;;;;;;6.23;3.57;;;11.30;99.90;;;;;;5042959;23;20160;-69
2022/10/06 06:42:18;;;;;;;8.87;4.00;;;11.40;99.90;;;;;;5043089;23;20155;-70
2022/10/06 06:44:19;;;;;;;7.33;4.10;;;11.50;99.90;;;;;;5041865;23;20261;-70
2022/10/06 06:46:26;;;;;;;6.50;3.90;;;11.60;99.90;;;;;;5043419;23;20194;-70
2022/10/06 06:48:27;;;;;;;7.37;4.60;;;11.70;99.90;;;;;;5043285;23;20190;-70
2022/10/06 06:50:27;;;;;;;6.17;3.77;;;11.50;99.90;;;;;;5042776;23;20829;-70
2022/10/06 06:52:29;;;;;;;14.53;5.90;;;11.50;99.90;;;;;;5043232;23;20159;-70
2022/10/06 06:54:30;;;;;;;13.73;6.60;;;11.60;99.90;;;;;;5043668;23;20621;-70
2022/10/06 06:56:33;;;;;;;13.77;6.87;;;11.70;99.90;;;;;;5043573;23;20170;-70
2022/10/06 06:58:35;;;;;;;13.87;6.13;;;11.60;99.90;;;;;;5043097;23;20568;-70
2022/10/06 07:00:35;;;;;;;11.47;6.27;;;11.60;99.90;;;;;;5041147;23;20250;-69
2022/10/06 07:02:36;;;;;;;13.33;6.97;;;11.80;99.90;;;;;;5043225;23;20163;-70
2022/10/06 07:04:36;;;;;;;14.83;6.80;;;12.00;99.60;;;;;;5043254;23;20187;-70
2022/10/06 07:06:39;;;;;;;13.77;5.90;;;12.00;99.40;;;;;;5043078;23;20167;-70
2022/10/06 07:08:42;;;;;;;12.00;5.33;;;12.00;98.90;;;;;;5043020;23;20719;-70
2022/10/06 07:10:43;;;;;;;8.10;5.00;;;12.10;99.50;;;;;;5040658;23;20163;-70
2022/10/06 07:12:44;;;;;;;9.20;4.67;;;12.20;99.50;;;;;;5043043;23;20159;-68
2022/10/06 07:25:05;;;;;;;12.73;4.93;;;12.20;99.90;;;;;;5042712;23;20699;-70
2022/10/06 07:26:45;;;;;;;10.73;4.80;;;12.80;98.80;;;;;;5042659;23;20178;-69
2022/10/06 07:28:45;;;;;;;11.27;4.73;;;12.90;99.70;;;;;;5042855;23;20191;-70
2022/10/06 07:30:46;;;;;;;11.07;4.80;;;13.00;99.90;;;;;;5042107;23;20562;-70
2022/10/06 07:32:49;;;;;;;10.27;4.90;;;13.00;99.90;;;;;;5048766;23;20710;-70
2022/10/06 07:34:50;;;;;;;9.47;7.00;;;13.30;99.20;;;;;;5067396;23;20182;-70
2022/10/06 07:36:52;;;;;;;7.37;5.20;;;13.40;97.40;;;;;;5067027;23;20169;-70
2022/10/06 07:38:54;;;;;;;6.73;3.87;;;13.30;97.20;;;;;;5067104;23;20169;-70
2022/10/06 07:40:55;;;;;;;10.70;4.20;;;13.30;99.20;;;;;;5066169;23;20162;-70
2022/10/06 07:42:56;;;;;;;5.67;3.53;;;13.40;99.60;;;;;;5066715;23;20216;-70
2022/10/06 07:47:16;;;;;;;6.50;3.80;;;13.90;99.90;;;;;;5066839;23;20229;-70
2022/10/06 07:49:16;;;;;;;8.20;5.37;;;14.10;98.80;;;;;;5066975;23;20616;-70
2022/10/06 07:51:18;;;;;;;8.03;4.43;;;14.10;99.40;;;;;;5066130;23;20302;-69
2022/10/06 07:53:19;;;;;;;11.30;5.67;;;13.90;99.70;;;;;;5066826;23;20158;-70
2022/10/06 07:55:19;;;;;;;9.43;5.63;;;13.90;99.90;;;;;;5067310;23;20193;-69
2022/10/06 07:57:20;;;;;;;7.00;4.50;;;14.00;99.80;;;;;;5066833;23;20189;-70
2022/10/06 07:59:21;;;;;;;10.03;4.50;;;13.90;99.90;;;;;;5067032;23;20166;-70
2022/10/06 08:01:24;;;;;;;8.40;4.60;;;13.90;99.90;;;;;;5066236;23;20169;-70
2022/10/06 08:03:24;;;;;;;8.17;5.10;;;14.00;99.90;;;;;;5066882;23;20185;-70
2022/10/06 08:05:25;;;;;;;9.30;5.07;;;14.00;99.90;;;;;;5066991;23;20150;-70
2022/10/06 08:07:26;;;;;;;8.27;4.50;;;14.00;99.90;;;;;;5040744;23;20273;-70
2022/10/06 08:09:26;;;;;;;6.03;3.93;;;14.10;99.90;;;;;;5066692;23;20155;-70
2022/10/06 08:11:27;;;;;;;9.67;4.07;;;14.30;99.90;;;;;;5065919;23;20601;-70
2022/10/06 08:13:31;;;;;;;8.90;4.00;;;14.50;99.60;;;;;;5066735;23;20619;-70
2022/10/06 08:15:31;;;;;;;10.07;4.10;;;14.40;99.40;;;;;;5066910;23;20185;-70
2022/10/06 08:17:34;;;;;;;9.23;4.37;;;14.60;99.30;;;;;;5066750;23;20237;-70
2022/10/06 08:19:34;;;;;;;9.30;3.47;;;14.60;98.20;;;;;;5066510;23;20198;-69
2022/10/06 08:21:35;;;;;;;9.63;3.43;;;14.40;97.50;;;;;;5065791;23;20543;-70
2022/10/06 08:23:39;;;;;;;9.03;3.60;;;14.20;98.40;;;;;;5066743;23;20218;-70
2022/10/06 08:25:43;;;;;;;10.73;4.17;;;14.00;98.80;;;;;;5066663;23;20162;-70
2022/10/06 08:27:43;;;;;;;15.07;3.87;;;13.90;98.80;;;;;;5066548;23;20197;-70
2022/10/06 08:29:44;;;;;;;13.13;3.50;;;14.00;99.40;;;;;;5066593;23;20612;-70
2022/10/06 08:31:44;;;;;;;7.70;3.63;;;14.20;97.90;;;;;;5065803;23;20672;-70
2022/10/06 08:33:46;;;;;;;18.53;3.50;;;14.00;97.80;;;;;;5066626;23;20194;-70
2022/10/06 08:35:46;;;;;;;9.10;2.73;;;13.70;98.20;;;;;;5066876;23;20162;-70
2022/10/06 08:37:47;;;;;;;7.43;2.73;;;13.70;98.60;;;;;;5067167;23;20186;-70
2022/10/06 08:39:51;;;;;;;8.43;3.60;;;13.80;98.60;;;;;;5067000;23;20217;-70
2022/10/06 08:41:53;;;;;;;4.77;2.13;;;13.90;98.50;;;;;;5065968;23;20162;-70
2022/10/06 08:44:17;;;;;;;6.27;2.90;;;14.20;97.90;;;;;;5066773;23;20188;-70
2022/10/06 08:46:20;;;;;;;6.80;2.60;;;14.50;97.10;;;;;;5066599;23;20634;-70
2022/10/06 08:48:27;;;;;;;8.97;2.83;;;14.70;95.60;;;;;;5066602;23;20193;-70
2022/10/06 08:50:37;;;;;;;5.83;2.80;;;15.00;95.40;;;;;;5066051;23;20240;-70
2022/10/06 08:53:07;;;;;;;7.53;2.70;;;15.40;94.10;;;;;;5041397;23;20186;-70
2022/10/06 08:55:37;;;;;;;8.50;2.87;;;15.70;92.80;;;;;;5041212;23;20178;-70
2022/10/06 08:58:06;;;;;;;5.20;2.60;;;15.90;92.00;;;;;;5040924;23;20515;-70
2022/10/06 09:00:13;;;;;;;7.30;2.97;;;16.60;91.10;;;;;;5066963;23;20158;-70
2022/10/06 09:02:38;;;;;;;7.97;3.00;;;17.20;84.20;;;;;;5041244;23;20682;-70
2022/10/06 09:04:38;;;;;;;4.27;2.80;;;17.70;79.70;;;;;;5041165;23;20214;-70
2022/10/06 09:07:12;;;;;;;4.67;2.50;;;17.60;78.40;;;;;;5041026;23;20639;-70
2022/10/06 09:09:50;;;;;;;7.27;2.90;;;17.10;80.90;;;;;;5040759;23;20174;-70
2022/10/06 09:12:26;;;;;;;6.17;2.47;;;16.70;82.40;;;;;;5040442;23;20520;-70
2022/10/06 09:14:51;;;;;;;4.63;2.40;;;16.50;84.60;;;;;;5066302;23;20182;-70
2022/10/06 09:17:00;;;;;;;10.37;2.70;;;16.40;85.10;;;;;;5024342;23;20229;-70
2022/10/06 09:19:23;;;;;;;6.23;2.77;;;16.40;86.60;;;;;;5066446;23;20162;-70
2022/10/06 09:21:44;;;;;;;6.90;2.70;;;16.30;85.70;;;;;;5040320;23;20821;-70
2022/10/06 09:23:52;;;;;;;5.30;2.37;;;16.00;86.10;;;;;;5041021;23;20178;-69
2022/10/06 09:25:56;;;;;;;4.07;2.40;;;15.50;88.30;;;;;;5066754;23;20158;-69
2022/10/06 09:27:59;;;;;;;8.27;2.30;;;15.20;90.30;;;;;;5066449;23;20190;-69
2022/10/06 09:30:00;;;;;;;10.03;2.60;;;15.20;91.10;;;;;;5066597;23;20180;-71
2022/10/06 09:32:01;;;;;;;5.30;2.80;;;15.50;90.90;;;;;;5065670;23;20174;-69
2022/10/06 09:34:24;;;;;;;7.77;3.37;;;15.80;88.80;;;;;;5066851;23;20237;-70
2022/10/06 09:36:25;;;;;;;6.10;3.27;;;15.90;87.80;;;;;;5040913;23;20194;-70
2022/10/06 09:38:54;;;;;;;6.20;2.77;;;15.60;90.20;;;;;;5066649;23;20167;-70
2022/10/06 09:40:54;;;;;;;4.10;2.70;;;15.60;90.80;;;;;;5017157;23;20182;-70
2022/10/06 09:42:56;;;;;;;6.53;2.70;;;15.70;90.20;;;;;;5068319;23;20198;-70
2022/10/06 09:45:06;;;;;;;7.30;2.73;;;15.90;89.90;;;;;;5042676;23;20258;-69
2022/10/06 09:47:40;;;;;;;8.60;2.90;;;16.10;87.50;;;;;;5042250;23;20174;-70
2022/10/06 09:49:42;;;;;;;7.53;2.70;;;16.00;87.80;;;;;;5042560;23;20211;-69
2022/10/06 09:52:13;;;;;;;9.90;2.70;;;16.30;86.00;;;;;;5066906;23;20154;-69
2022/10/06 09:54:16;;;;;;;5.57;2.27;;;16.10;86.90;;;;;;5018590;23;20187;-69
2022/10/06 09:56:18;;;;;;;6.10;2.17;;;16.10;87.10;;;;;;5067943;23;20154;-69
2022/10/06 09:58:31;;;;;;;3.70;2.50;;;16.10;88.30;;;;;;5041940;23;20270;-69
2022/10/06 10:00:35;;;;;;;8.33;2.80;;;16.40;86.90;;;;;;5067217;23;20162;-69
2022/10/06 10:02:36;;;;;;;5.17;2.53;;;16.50;83.70;;;;;;5042062;23;20181;-69
2022/10/06 10:04:40;;;;;;;6.10;2.43;;;16.30;84.80;;;;;;5042545;23;20270;-69
2022/10/06 10:06:41;;;;;;;4.37;2.60;;;16.20;84.00;;;;;;5068372;23;20154;-69
2022/10/06 10:08:41;;;;;;;6.50;2.40;;;15.90;86.70;;;;;;5042166;23;20187;-69
2022/10/06 10:10:42;;;;;;;5.37;2.13;;;15.90;89.00;;;;;;5041780;23;20159;-70
2022/10/06 10:12:53;;;;;;;4.97;2.70;;;15.70;89.60;;;;;;5068292;23;20158;-70
2022/10/06 10:15:00;;;;;;;6.30;2.50;;;15.70;89.70;;;;;;5068249;23;20182;-69
2022/10/06 10:17:31;;;;;;;5.27;2.83;;;15.70;88.10;;;;;;5042579;23;20156;-69
2022/10/06 10:19:41;;;;;;;6.10;2.30;;;15.60;88.70;;;;;;5067685;23;20158;-69
2022/10/06 10:21:43;;;;;;;4.47;2.33;;;15.60;89.20;;;;;;5067220;23;20158;-69
2022/10/06 10:23:54;;;;;;;6.37;2.27;;;15.90;87.70;;;;;;5042260;23;20183;-70
2022/10/06 10:26:16;;;;;;;5.30;2.70;;;15.70;88.40;;;;;;5043306;23;20163;-68
2022/10/06 10:28:43;;;;;;;4.57;2.30;;;15.60;88.50;;;;;;5067822;23;20244;-70
2022/10/06 10:31:03;;;;;;;6.97;2.20;;;15.60;90.30;;;;;;5067711;23;20161;-70
2022/10/06 10:33:20;;;;;;;5.50;2.50;;;15.40;91.80;;;;;;5068418;23;20170;-69
2022/10/06 10:35:33;;;;;;;5.60;2.50;;;15.80;91.10;;;;;;5042576;23;20154;-70
2022/10/06 10:37:45;;;;;;;4.57;2.30;;;15.90;90.90;;;;;;5042701;23;20222;-70
2022/10/06 10:40:18;;;;;;;5.67;2.80;;;15.90;90.70;;;;;;5068465;23;20165;-71
2022/10/06 10:42:31;;;;;;;5.20;2.70;;;16.00;90.50;;;;;;5044904;23;20167;-70
2022/10/06 10:44:42;;;;;;;5.17;2.50;;;16.20;87.80;;;;;;5042939;23;20639;-70
2022/10/06 10:46:51;;;;;;;5.97;2.67;;;16.20;88.70;;;;;;5042841;23;20166;-70
2022/10/06 10:49:00;;;;;;;3.33;2.30;;;16.50;87.60;;;;;;5042667;23;20644;-70
2022/10/06 10:51:21;;;;;;;4.93;2.30;;;16.40;84.80;;;;;;5041696;23;20224;-70
2022/10/06 10:54:16;;;;;;;7.20;2.47;;;16.30;86.80;;;;;;5041880;23;20186;-70
2022/10/06 10:56:22;;;;;;;6.30;2.53;;;17.20;82.90;;;;;;5062672;23;20588;-69
2022/10/06 10:58:28;;;;;;;5.37;2.60;;;17.40;80.00;;;;;;5042503;23;20159;-70
2022/10/06 11:00:30;;;;;;;3.73;2.20;;;17.80;77.20;;;;;;5067215;23;20170;-70
2022/10/06 11:02:34;;;;;;;4.13;2.67;;;18.10;76.20;;;;;;5067451;23;20166;-69